Cedar Falls, North Carolina
Current Conditions -  °F | °C
As of 6:15 PM on Tuesday 27 Jan 2015 (Local Time) from KHBI Reporting Station
Clear Clear  
Wind Chill: 37°   Ceiling: Unl
Heat Index: 40°   Visibility: 10mi
Dew Point:   Wind: 5mph
Humidity: 25%   Direction: 320°NW
Pressure: 29.91"   Gusts: NA
Location:  35.75°N, 79.73°W
Report Text: KHBI 272315Z AUTO 32004KT 10SM CLR 05/M14 A2991 RMK AO2 T00471139
Loading
Personal Weather Stations






























Interactive Weather Map New forecast layout! Learn more

10-Day Weather Forecast

Advertisements
Track Severe Weather on mobile